Ross, Minnesota
Current Conditions -  °F | °C
As of 7:14 AM on Wednesday 22 Oct 2014 (Local Time) from KROX Reporting Station
Scattered Clouds Scattered Clouds  
Wind Chill: 52°   Ceiling: Unl
Heat Index: 52°   Visibility: 10mi
Dew Point: 43°   Wind: 13mph
Humidity: 71%   Direction: 160°SSE
Pressure: 29.89"   Gusts: NA
Location:  48.7499°N, 95.6399°W
Report Text: KROX 221214Z AUTO 16011KT 10SM SCT050 11/06 A2989 RMK AO2
Loading
Personal Weather Stations






























Interactive Weather Map
Tropical Storm Tracking
New forecast layout! Learn more

10-Day Weather Forecast

Advertisements
Track Severe Weather on mobile